Aeroporto :
LOGIN :

Iscrizione | Disclaimer

   EN    FR    IT 

 










Sommario :    VFR   VFR Marginale   IFR   IFR Intensivo   IFR Molto Intensivo
Visibilità : 
Base nubi : 
>= 8 km
>= 3000ft
5 / 8 km
1000 / 3000 ft
1500m / 5 km
500 / 1000 ft
800 / 1500m
200 / 500 ft
< 800m
< 200 ft
Simboli :   Temporali  Nebbia  Neve Forte  Precipitazioni Forti  Vento > 20 kt
SIGMETs :   Varie  Temporali  Ghiacco  Turbolenza  Onda orograficha  Ceneri Vulcaniche







- Altitudine del aeroporto : 1411 ft
- Codice IATA : GVA


LSGG - Genève Cointrin

ULTIMO METAR :
  • 211720Z 27005KT 210V360 9999 FEW035 SCT080 BKN090 22/11 Q1018 NOSIG

METARs OBSOLETI :
  • 211650Z 29008KT 250V330 9999 FEW035 SCT080 BKN110 22/11 Q1018 NOSIG
  • 211620Z 27014G24KT 240V330 9999 FEW050 SCT080 BKN110 26/07 Q1016 NOSIG
  • 211550Z 26013KT 9999 FEW080 SCT100 BKN160 27/09 Q1016 NOSIG
  • 211520Z 25010KT 220V290 9999 FEW080 SCT100 BKN200 26/12 Q1016 NOSIG
  • 211450Z 23009KT 9999 FEW080 SCT100 BKN200 25/15 Q1016 NOSIG

TAF TAF LSGG
Valido dal 21 a 18 ore il 23 a 00 ore UTC


211725Z 2118/2224 30010KT 9999 FEW040 BKN090 TX22/2215Z TN12/2205Z
PROB40
TEMPO 2118/2121 SHRA BKN040
BECMG 2121/2123 VRB03KT
BECMG 2210/2212 04010KT
BECMG 2217/2219 VRB03KT
ATIS : +41 22 417 40 81
Nessun NOTAM noto per questo aeroporto.



MetMap, La meteo Aeronautica in un colpo d'occhio ! - Copyright ORBIFLY Dicembre 2007 - Disclaimer

ORBIFLY MET'MAP TEAM :

Programmazione e sviluppo : Alexandra Zaïnal
Concezione e sviluppo : Baudouin d'Aumeries
Co-Programmazione e sviluppo : Marc-Olivier Méhu
Supporto tecnico e logistico : Manuel Goepfert
Aiuto per la traduzione : Arnaldo La Scala

Contatto : metmap@orbifly.com




FONTI E CREDITI :

   NOAA